HUG weather

Huanguelen Airport
Huanguelen, Buenos Aires Province, Argentina

Public forecast

Using degrees Celsius for public forecast. Weather courtesy of forecast.io.

METAR (pilot weather report)

Report is more than 6 hours old.

Closest report is Azul Airport, 99.3 nm (183.8 km) E. Retrieved 2018/12/13 19:38 UTC (5 days ago):

SAZA 131938Z 05020KT 7000 -RA OVC035 17/13 Q1009

TAF (pilot weather forecast)

Forecast is more than 12 hours old.

Closest forecast is Olavarria Airport, 82.8 nm (153.4 km) E. Retrieved 2017/07/03 00:00 UTC (1 year ago):

TAF SAZF 032300Z 0400/0424 02010KT CAVOK TX20/0418Z TN13/0410Z BECMG 0415/0417 03015G25KT